sensor_id;sensor_type;location;lat;lon;timestamp;P1;durP1;ratioP1;P2;durP2;ratioP2
787;SDS011;16074;42.708;23.312;2022-10-26T00:01:07;7.40;;;6.23;;
787;SDS011;16074;42.708;23.312;2022-10-26T00:03:37;11.23;;;6.83;;
787;SDS011;16074;42.708;23.312;2022-10-26T00:06:07;9.73;;;6.20;;
787;SDS011;16074;42.708;23.312;2022-10-26T00:08:37;14.53;;;6.73;;
787;SDS011;16074;42.708;23.312;2022-10-26T00:11:05;7.77;;;5.50;;
787;SDS011;16074;42.708;23.312;2022-10-26T00:13:34;12.27;;;7.27;;
787;SDS011;16074;42.708;23.312;2022-10-26T00:16:07;8.33;;;5.90;;
787;SDS011;16074;42.708;23.312;2022-10-26T00:18:37;9.13;;;6.97;;
787;SDS011;16074;42.708;23.312;2022-10-26T00:21:06;6.80;;;5.87;;
787;SDS011;16074;42.708;23.312;2022-10-26T00:23:36;7.10;;;5.83;;
787;SDS011;16074;42.708;23.312;2022-10-26T00:26:04;8.10;;;5.60;;
787;SDS011;16074;42.708;23.312;2022-10-26T00:28:33;6.83;;;5.93;;
787;SDS011;16074;42.708;23.312;2022-10-26T00:31:02;10.80;;;7.10;;
787;SDS011;16074;42.708;23.312;2022-10-26T00:33:33;9.60;;;6.63;;
787;SDS011;16074;42.708;23.312;2022-10-26T00:36:02;6.80;;;5.90;;
787;SDS011;16074;42.708;23.312;2022-10-26T00:38:30;7.27;;;6.47;;
787;SDS011;16074;42.708;23.312;2022-10-26T00:40:59;8.30;;;6.77;;
787;SDS011;16074;42.708;23.312;2022-10-26T00:43:34;7.20;;;6.60;;
787;SDS011;16074;42.708;23.312;2022-10-26T00:46:05;8.40;;;6.80;;
787;SDS011;16074;42.708;23.312;2022-10-26T00:48:41;8.85;;;6.18;;
787;SDS011;16074;42.708;23.312;2022-10-26T00:51:14;8.17;;;7.30;;
787;SDS011;16074;42.708;23.312;2022-10-26T00:53:47;7.93;;;7.20;;
787;SDS011;16074;42.708;23.312;2022-10-26T00:56:16;6.22;;;5.72;;
787;SDS011;16074;42.708;23.312;2022-10-26T00:58:45;11.97;;;7.13;;
787;SDS011;16074;42.708;23.312;2022-10-26T01:01:13;7.27;;;6.60;;
787;SDS011;16074;42.708;23.312;2022-10-26T01:03:43;11.98;;;7.75;;
787;SDS011;16074;42.708;23.312;2022-10-26T01:06:13;8.83;;;7.93;;
787;SDS011;16074;42.708;23.312;2022-10-26T01:08:42;10.57;;;6.53;;
787;SDS011;16074;42.708;23.312;2022-10-26T01:11:10;14.90;;;6.80;;
787;SDS011;16074;42.708;23.312;2022-10-26T01:13:39;8.80;;;5.97;;
787;SDS011;16074;42.708;23.312;2022-10-26T01:16:23;8.80;;;5.83;;
787;SDS011;16074;42.708;23.312;2022-10-26T01:22:23;9.27;;;6.60;;
787;SDS011;16074;42.708;23.312;2022-10-26T01:25:02;9.57;;;7.00;;
787;SDS011;16074;42.708;23.312;2022-10-26T01:27:43;10.50;;;6.90;;
787;SDS011;16074;42.708;23.312;2022-10-26T01:30:17;7.83;;;6.70;;
787;SDS011;16074;42.708;23.312;2022-10-26T01:33:00;6.27;;;5.67;;
787;SDS011;16074;42.708;23.312;2022-10-26T01:35:37;6.70;;;6.10;;
787;SDS011;16074;42.708;23.312;2022-10-26T01:38:16;6.60;;;6.00;;
787;SDS011;16074;42.708;23.312;2022-10-26T01:40:52;7.90;;;6.10;;
787;SDS011;16074;42.708;23.312;2022-10-26T01:43:27;9.60;;;6.50;;
787;SDS011;16074;42.708;23.312;2022-10-26T01:45:59;10.77;;;6.17;;
787;SDS011;16074;42.708;23.312;2022-10-26T01:48:30;7.90;;;6.63;;
787;SDS011;16074;42.708;23.312;2022-10-26T01:51:01;7.77;;;6.97;;
787;SDS011;16074;42.708;23.312;2022-10-26T01:53:31;7.50;;;6.60;;
787;SDS011;16074;42.708;23.312;2022-10-26T01:55:59;9.03;;;6.37;;
787;SDS011;16074;42.708;23.312;2022-10-26T02:04:29;9.07;;;6.27;;
787;SDS011;16074;42.708;23.312;2022-10-26T02:07:09;10.47;;;6.00;;
787;SDS011;16074;42.708;23.312;2022-10-26T02:09:45;9.20;;;6.60;;
787;SDS011;16074;42.708;23.312;2022-10-26T02:12:36;7.03;;;5.82;;
787;SDS011;16074;42.708;23.312;2022-10-26T02:15:10;8.43;;;6.25;;
787;SDS011;16074;42.708;23.312;2022-10-26T02:17:46;7.73;;;6.20;;
787;SDS011;16074;42.708;23.312;2022-10-26T02:20:22;7.28;;;6.55;;
787;SDS011;16074;42.708;23.312;2022-10-26T02:22:55;7.80;;;6.00;;
787;SDS011;16074;42.708;23.312;2022-10-26T02:25:28;8.20;;;5.88;;
787;SDS011;16074;42.708;23.312;2022-10-26T02:28:00;6.25;;;5.55;;
787;SDS011;16074;42.708;23.312;2022-10-26T02:30:32;7.88;;;6.68;;
787;SDS011;16074;42.708;23.312;2022-10-26T02:33:05;9.52;;;6.15;;
787;SDS011;16074;42.708;23.312;2022-10-26T02:35:36;8.05;;;6.60;;
787;SDS011;16074;42.708;23.312;2022-10-26T02:38:06;6.55;;;5.68;;
787;SDS011;16074;42.708;23.312;2022-10-26T02:40:37;6.75;;;5.75;;
787;SDS011;16074;42.708;23.312;2022-10-26T02:43:06;7.78;;;6.03;;
787;SDS011;16074;42.708;23.312;2022-10-26T02:45:43;8.95;;;6.75;;
787;SDS011;16074;42.708;23.312;2022-10-26T02:48:16;6.82;;;6.10;;
787;SDS011;16074;42.708;23.312;2022-10-26T02:50:48;9.23;;;7.20;;
787;SDS011;16074;42.708;23.312;2022-10-26T02:53:24;10.18;;;7.25;;
787;SDS011;16074;42.708;23.312;2022-10-26T02:55:57;8.73;;;6.70;;
787;SDS011;16074;42.708;23.312;2022-10-26T02:58:30;7.57;;;6.75;;
787;SDS011;16074;42.708;23.312;2022-10-26T03:01:03;10.90;;;6.63;;
787;SDS011;16074;42.708;23.312;2022-10-26T03:03:33;8.55;;;6.20;;
787;SDS011;16074;42.708;23.312;2022-10-26T03:06:01;7.15;;;6.55;;
787;SDS011;16074;42.708;23.312;2022-10-26T03:08:30;9.10;;;7.55;;
787;SDS011;16074;42.708;23.312;2022-10-26T03:10:58;12.35;;;7.55;;
787;SDS011;16074;42.708;23.312;2022-10-26T03:13:26;11.63;;;7.32;;
787;SDS011;16074;42.708;23.312;2022-10-26T03:15:54;8.77;;;7.88;;
787;SDS011;16074;42.708;23.312;2022-10-26T03:18:23;7.55;;;6.85;;
787;SDS011;16074;42.708;23.312;2022-10-26T03:20:53;10.32;;;7.07;;
787;SDS011;16074;42.708;23.312;2022-10-26T03:23:21;7.40;;;6.57;;
787;SDS011;16074;42.708;23.312;2022-10-26T03:25:49;10.05;;;7.95;;
787;SDS011;16074;42.708;23.312;2022-10-26T03:28:17;16.65;;;8.32;;
787;SDS011;16074;42.708;23.312;2022-10-26T03:30:45;11.88;;;9.07;;
787;SDS011;16074;42.708;23.312;2022-10-26T03:33:13;11.00;;;8.43;;
787;SDS011;16074;42.708;23.312;2022-10-26T03:35:41;8.75;;;7.80;;
787;SDS011;16074;42.708;23.312;2022-10-26T03:38:11;11.95;;;8.43;;
787;SDS011;16074;42.708;23.312;2022-10-26T03:40:41;9.80;;;7.90;;
787;SDS011;16074;42.708;23.312;2022-10-26T03:43:09;7.65;;;6.82;;
787;SDS011;16074;42.708;23.312;2022-10-26T03:45:38;9.35;;;8.32;;
787;SDS011;16074;42.708;23.312;2022-10-26T03:48:06;8.63;;;7.28;;
787;SDS011;16074;42.708;23.312;2022-10-26T03:50:34;9.85;;;8.13;;
787;SDS011;16074;42.708;23.312;2022-10-26T03:53:02;9.38;;;8.45;;
787;SDS011;16074;42.708;23.312;2022-10-26T03:55:32;9.10;;;8.07;;
787;SDS011;16074;42.708;23.312;2022-10-26T03:58:00;10.10;;;7.75;;
787;SDS011;16074;42.708;23.312;2022-10-26T04:00:29;10.68;;;7.97;;
787;SDS011;16074;42.708;23.312;2022-10-26T04:02:57;8.20;;;7.15;;
787;SDS011;16074;42.708;23.312;2022-10-26T04:05:27;10.68;;;7.68;;
787;SDS011;16074;42.708;23.312;2022-10-26T04:07:56;11.50;;;6.82;;
787;SDS011;16074;42.708;23.312;2022-10-26T04:10:26;8.30;;;6.95;;
787;SDS011;16074;42.708;23.312;2022-10-26T04:12:56;8.77;;;6.90;;
787;SDS011;16074;42.708;23.312;2022-10-26T04:15:25;10.32;;;8.00;;
787;SDS011;16074;42.708;23.312;2022-10-26T04:17:54;9.15;;;7.20;;
787;SDS011;16074;42.708;23.312;2022-10-26T04:20:23;9.38;;;6.63;;
787;SDS011;16074;42.708;23.312;2022-10-26T04:22:56;8.60;;;7.47;;
787;SDS011;16074;42.708;23.312;2022-10-26T04:25:25;10.35;;;8.27;;
787;SDS011;16074;42.708;23.312;2022-10-26T04:27:59;10.55;;;8.80;;
787;SDS011;16074;42.708;23.312;2022-10-26T04:30:29;10.60;;;7.65;;
787;SDS011;16074;42.708;23.312;2022-10-26T04:32:57;8.35;;;7.40;;
787;SDS011;16074;42.708;23.312;2022-10-26T04:35:25;10.43;;;8.57;;
787;SDS011;16074;42.708;23.312;2022-10-26T04:37:57;8.98;;;7.93;;
787;SDS011;16074;42.708;23.312;2022-10-26T04:40:25;9.30;;;7.18;;
787;SDS011;16074;42.708;23.312;2022-10-26T04:42:54;10.50;;;7.95;;
787;SDS011;16074;42.708;23.312;2022-10-26T04:45:23;8.63;;;7.75;;
787;SDS011;16074;42.708;23.312;2022-10-26T04:48:00;9.85;;;8.85;;
787;SDS011;16074;42.708;23.312;2022-10-26T04:50:30;10.55;;;8.85;;
787;SDS011;16074;42.708;23.312;2022-10-26T04:53:01;10.23;;;8.15;;
787;SDS011;16074;42.708;23.312;2022-10-26T04:55:30;10.15;;;8.82;;
787;SDS011;16074;42.708;23.312;2022-10-26T04:57:58;8.80;;;7.90;;
787;SDS011;16074;42.708;23.312;2022-10-26T05:00:29;9.15;;;8.25;;
787;SDS011;16074;42.708;23.312;2022-10-26T05:02:58;10.70;;;8.57;;
787;SDS011;16074;42.708;23.312;2022-10-26T05:05:27;8.43;;;7.68;;
787;SDS011;16074;42.708;23.312;2022-10-26T05:07:55;10.63;;;8.07;;
787;SDS011;16074;42.708;23.312;2022-10-26T05:10:24;10.68;;;7.90;;
787;SDS011;16074;42.708;23.312;2022-10-26T05:12:53;10.57;;;8.52;;
787;SDS011;16074;42.708;23.312;2022-10-26T05:15:23;12.23;;;9.07;;
787;SDS011;16074;42.708;23.312;2022-10-26T05:17:56;11.00;;;8.00;;
787;SDS011;16074;42.708;23.312;2022-10-26T05:20:26;10.30;;;7.72;;
787;SDS011;16074;42.708;23.312;2022-10-26T05:22:57;8.85;;;7.82;;
787;SDS011;16074;42.708;23.312;2022-10-26T05:25:27;11.68;;;8.50;;
787;SDS011;16074;42.708;23.312;2022-10-26T05:27:57;8.80;;;7.95;;
787;SDS011;16074;42.708;23.312;2022-10-26T05:30:26;10.38;;;8.82;;
787;SDS011;16074;42.708;23.312;2022-10-26T05:32:57;10.43;;;8.13;;
787;SDS011;16074;42.708;23.312;2022-10-26T05:35:26;11.38;;;9.85;;
787;SDS011;16074;42.708;23.312;2022-10-26T05:37:54;10.32;;;8.82;;
787;SDS011;16074;42.708;23.312;2022-10-26T05:40:23;15.02;;;8.98;;
787;SDS011;16074;42.708;23.312;2022-10-26T05:42:51;10.18;;;8.27;;
787;SDS011;16074;42.708;23.312;2022-10-26T05:45:19;9.57;;;8.52;;
787;SDS011;16074;42.708;23.312;2022-10-26T05:47:48;12.05;;;9.68;;
787;SDS011;16074;42.708;23.312;2022-10-26T05:50:17;11.27;;;9.05;;
787;SDS011;16074;42.708;23.312;2022-10-26T05:52:46;11.17;;;8.90;;
787;SDS011;16074;42.708;23.312;2022-10-26T05:55:16;12.17;;;8.73;;
787;SDS011;16074;42.708;23.312;2022-10-26T05:57:45;9.73;;;8.77;;
787;SDS011;16074;42.708;23.312;2022-10-26T06:00:15;11.23;;;8.57;;
787;SDS011;16074;42.708;23.312;2022-10-26T06:02:49;13.07;;;9.07;;
787;SDS011;16074;42.708;23.312;2022-10-26T06:05:30;11.30;;;9.20;;
787;SDS011;16074;42.708;23.312;2022-10-26T06:08:02;9.57;;;7.93;;
787;SDS011;16074;42.708;23.312;2022-10-26T06:10:35;14.10;;;8.90;;
787;SDS011;16074;42.708;23.312;2022-10-26T06:13:03;10.80;;;8.23;;
787;SDS011;16074;42.708;23.312;2022-10-26T06:15:32;12.10;;;9.07;;
787;SDS011;16074;42.708;23.312;2022-10-26T06:18:07;11.30;;;8.80;;
787;SDS011;16074;42.708;23.312;2022-10-26T06:20:47;10.03;;;9.03;;
787;SDS011;16074;42.708;23.312;2022-10-26T06:23:36;9.63;;;8.30;;
787;SDS011;16074;42.708;23.312;2022-10-26T06:26:13;10.03;;;8.03;;
787;SDS011;16074;42.708;23.312;2022-10-26T06:28:53;7.87;;;7.10;;
787;SDS011;16074;42.708;23.312;2022-10-26T06:31:29;7.97;;;7.27;;
787;SDS011;16074;42.708;23.312;2022-10-26T06:33:58;10.70;;;8.07;;
787;SDS011;16074;42.708;23.312;2022-10-26T06:36:28;7.57;;;6.87;;
787;SDS011;16074;42.708;23.312;2022-10-26T06:38:58;7.33;;;6.50;;
787;SDS011;16074;42.708;23.312;2022-10-26T06:41:29;11.80;;;7.10;;
787;SDS011;16074;42.708;23.312;2022-10-26T06:44:00;11.70;;;9.07;;
787;SDS011;16074;42.708;23.312;2022-10-26T06:46:31;7.20;;;6.57;;
787;SDS011;16074;42.708;23.312;2022-10-26T06:49:07;7.33;;;6.67;;
787;SDS011;16074;42.708;23.312;2022-10-26T06:51:48;8.80;;;7.40;;
787;SDS011;16074;42.708;23.312;2022-10-26T06:54:22;6.70;;;6.10;;
787;SDS011;16074;42.708;23.312;2022-10-26T06:56:56;6.63;;;5.70;;
787;SDS011;16074;42.708;23.312;2022-10-26T06:59:28;7.63;;;6.90;;
787;SDS011;16074;42.708;23.312;2022-10-26T07:02:03;9.43;;;6.07;;
787;SDS011;16074;42.708;23.312;2022-10-26T07:04:32;8.73;;;7.83;;
787;SDS011;16074;42.708;23.312;2022-10-26T07:07:02;8.37;;;7.43;;
787;SDS011;16074;42.708;23.312;2022-10-26T07:09:30;10.13;;;6.90;;
787;SDS011;16074;42.708;23.312;2022-10-26T07:11:58;7.60;;;6.67;;
787;SDS011;16074;42.708;23.312;2022-10-26T07:14:27;8.57;;;7.77;;
787;SDS011;16074;42.708;23.312;2022-10-26T07:16:55;8.83;;;8.00;;
787;SDS011;16074;42.708;23.312;2022-10-26T07:19:23;9.90;;;9.00;;
787;SDS011;16074;42.708;23.312;2022-10-26T07:21:52;9.00;;;7.70;;
787;SDS011;16074;42.708;23.312;2022-10-26T07:24:23;10.80;;;7.10;;
787;SDS011;16074;42.708;23.312;2022-10-26T07:26:52;8.53;;;7.73;;
787;SDS011;16074;42.708;23.312;2022-10-26T07:29:21;8.20;;;7.40;;
787;SDS011;16074;42.708;23.312;2022-10-26T07:31:50;8.03;;;7.17;;
787;SDS011;16074;42.708;23.312;2022-10-26T07:34:24;8.90;;;7.73;;
787;SDS011;16074;42.708;23.312;2022-10-26T07:36:52;9.03;;;7.27;;
787;SDS011;16074;42.708;23.312;2022-10-26T07:39:20;9.27;;;7.00;;
787;SDS011;16074;42.708;23.312;2022-10-26T07:41:50;13.47;;;8.40;;
787;SDS011;16074;42.708;23.312;2022-10-26T07:44:18;8.13;;;7.43;;
787;SDS011;16074;42.708;23.312;2022-10-26T07:46:46;8.97;;;7.00;;
787;SDS011;16074;42.708;23.312;2022-10-26T07:49:14;7.23;;;6.60;;
787;SDS011;16074;42.708;23.312;2022-10-26T07:51:45;7.50;;;6.80;;
787;SDS011;16074;42.708;23.312;2022-10-26T07:54:13;7.67;;;6.93;;
787;SDS011;16074;42.708;23.312;2022-10-26T07:56:41;6.73;;;6.17;;
787;SDS011;16074;42.708;23.312;2022-10-26T07:59:11;9.23;;;6.40;;
787;SDS011;16074;42.708;23.312;2022-10-26T08:01:39;9.03;;;6.90;;
787;SDS011;16074;42.708;23.312;2022-10-26T08:04:07;11.63;;;7.43;;
787;SDS011;16074;42.708;23.312;2022-10-26T08:06:36;11.83;;;5.77;;
787;SDS011;16074;42.708;23.312;2022-10-26T08:09:04;6.83;;;5.90;;
787;SDS011;16074;42.708;23.312;2022-10-26T08:11:32;5.53;;;5.10;;
787;SDS011;16074;42.708;23.312;2022-10-26T08:14:02;8.20;;;5.67;;
787;SDS011;16074;42.708;23.312;2022-10-26T08:16:32;5.10;;;4.03;;
787;SDS011;16074;42.708;23.312;2022-10-26T08:19:00;6.20;;;4.43;;
787;SDS011;16074;42.708;23.312;2022-10-26T08:21:29;5.43;;;4.93;;
787;SDS011;16074;42.708;23.312;2022-10-26T08:24:12;4.57;;;4.17;;
787;SDS011;16074;42.708;23.312;2022-10-26T08:26:40;4.93;;;4.53;;
787;SDS011;16074;42.708;23.312;2022-10-26T08:29:09;6.13;;;5.03;;
787;SDS011;16074;42.708;23.312;2022-10-26T08:31:38;5.03;;;4.30;;
787;SDS011;16074;42.708;23.312;2022-10-26T08:34:07;5.50;;;5.00;;
787;SDS011;16074;42.708;23.312;2022-10-26T08:36:35;5.30;;;4.80;;
787;SDS011;16074;42.708;23.312;2022-10-26T08:39:03;7.00;;;5.20;;
787;SDS011;16074;42.708;23.312;2022-10-26T08:41:33;4.60;;;4.20;;
787;SDS011;16074;42.708;23.312;2022-10-26T08:44:12;5.13;;;4.73;;
787;SDS011;16074;42.708;23.312;2022-10-26T08:46:50;7.27;;;4.23;;
787;SDS011;16074;42.708;23.312;2022-10-26T08:49:24;5.33;;;4.83;;
787;SDS011;16074;42.708;23.312;2022-10-26T08:51:56;5.57;;;3.23;;
787;SDS011;16074;42.708;23.312;2022-10-26T08:54:37;3.30;;;3.10;;
787;SDS011;16074;42.708;23.312;2022-10-26T08:57:12;3.50;;;3.20;;
787;SDS011;16074;42.708;23.312;2022-10-26T08:59:47;4.50;;;4.10;;
787;SDS011;16074;42.708;23.312;2022-10-26T09:02:21;7.37;;;4.60;;
787;SDS011;16074;42.708;23.312;2022-10-26T09:04:50;4.83;;;3.60;;
787;SDS011;16074;42.708;23.312;2022-10-26T09:07:23;4.70;;;3.87;;
787;SDS011;16074;42.708;23.312;2022-10-26T09:10:06;3.80;;;3.60;;
787;SDS011;16074;42.708;23.312;2022-10-26T09:12:45;8.53;;;4.43;;
787;SDS011;16074;42.708;23.312;2022-10-26T09:15:22;3.30;;;3.00;;
787;SDS011;16074;42.708;23.312;2022-10-26T09:18:03;4.80;;;3.20;;
787;SDS011;16074;42.708;23.312;2022-10-26T09:20:47;4.00;;;3.70;;
787;SDS011;16074;42.708;23.312;2022-10-26T09:23:26;3.13;;;2.93;;
787;SDS011;16074;42.708;23.312;2022-10-26T09:26:00;3.60;;;3.30;;
787;SDS011;16074;42.708;23.312;2022-10-26T09:28:31;5.40;;;3.67;;
787;SDS011;16074;42.708;23.312;2022-10-26T09:31:03;5.00;;;4.03;;
787;SDS011;16074;42.708;23.312;2022-10-26T09:33:34;4.60;;;3.40;;
787;SDS011;16074;42.708;23.312;2022-10-26T09:36:07;2.97;;;2.73;;
787;SDS011;16074;42.708;23.312;2022-10-26T09:38:43;3.03;;;2.80;;
787;SDS011;16074;42.708;23.312;2022-10-26T09:41:19;5.50;;;3.23;;
787;SDS011;16074;42.708;23.312;2022-10-26T09:43:56;4.03;;;3.50;;
787;SDS011;16074;42.708;23.312;2022-10-26T09:46:32;3.10;;;2.80;;
787;SDS011;16074;42.708;23.312;2022-10-26T09:49:10;4.03;;;3.63;;
787;SDS011;16074;42.708;23.312;2022-10-26T09:51:42;3.33;;;2.60;;
787;SDS011;16074;42.708;23.312;2022-10-26T09:54:12;4.10;;;2.93;;
787;SDS011;16074;42.708;23.312;2022-10-26T09:56:42;4.20;;;3.27;;
787;SDS011;16074;42.708;23.312;2022-10-26T09:59:11;2.47;;;2.27;;
787;SDS011;16074;42.708;23.312;2022-10-26T10:01:41;3.43;;;3.20;;
787;SDS011;16074;42.708;23.312;2022-10-26T10:04:16;2.60;;;2.40;;
787;SDS011;16074;42.708;23.312;2022-10-26T10:06:50;3.13;;;2.83;;
787;SDS011;16074;42.708;23.312;2022-10-26T10:09:20;8.23;;;3.10;;
787;SDS011;16074;42.708;23.312;2022-10-26T10:11:50;2.97;;;2.77;;
787;SDS011;16074;42.708;23.312;2022-10-26T10:14:23;3.00;;;2.80;;
787;SDS011;16074;42.708;23.312;2022-10-26T10:16:54;2.20;;;2.10;;
787;SDS011;16074;42.708;23.312;2022-10-26T10:19:27;2.03;;;1.93;;
787;SDS011;16074;42.708;23.312;2022-10-26T10:21:58;3.50;;;2.83;;
787;SDS011;16074;42.708;23.312;2022-10-26T10:24:27;2.97;;;2.77;;
787;SDS011;16074;42.708;23.312;2022-10-26T10:26:58;2.90;;;2.10;;
787;SDS011;16074;42.708;23.312;2022-10-26T10:29:28;3.07;;;2.77;;
787;SDS011;16074;42.708;23.312;2022-10-26T10:31:58;2.27;;;2.07;;
787;SDS011;16074;42.708;23.312;2022-10-26T10:34:30;2.70;;;2.50;;
787;SDS011;16074;42.708;23.312;2022-10-26T10:37:01;2.63;;;2.43;;
787;SDS011;16074;42.708;23.312;2022-10-26T10:39:32;2.70;;;2.50;;
787;SDS011;16074;42.708;23.312;2022-10-26T10:42:05;2.90;;;2.70;;
787;SDS011;16074;42.708;23.312;2022-10-26T10:44:41;4.90;;;3.33;;
787;SDS011;16074;42.708;23.312;2022-10-26T10:47:15;2.90;;;2.27;;
787;SDS011;16074;42.708;23.312;2022-10-26T10:49:56;3.03;;;2.00;;
787;SDS011;16074;42.708;23.312;2022-10-26T10:52:28;6.67;;;3.30;;
787;SDS011;16074;42.708;23.312;2022-10-26T10:55:12;3.67;;;2.53;;
787;SDS011;16074;42.708;23.312;2022-10-26T10:57:48;2.00;;;1.90;;
787;SDS011;16074;42.708;23.312;2022-10-26T11:00:26;3.57;;;2.77;;
787;SDS011;16074;42.708;23.312;2022-10-26T11:03:09;1.80;;;1.70;;
787;SDS011;16074;42.708;23.312;2022-10-26T11:06:04;2.10;;;2.00;;
787;SDS011;16074;42.708;23.312;2022-10-26T11:08:39;5.23;;;2.17;;
787;SDS011;16074;42.708;23.312;2022-10-26T11:11:13;2.50;;;2.30;;
787;SDS011;16074;42.708;23.312;2022-10-26T11:13:47;2.47;;;2.27;;
787;SDS011;16074;42.708;23.312;2022-10-26T11:16:20;1.60;;;1.60;;
787;SDS011;16074;42.708;23.312;2022-10-26T11:18:54;2.10;;;2.00;;
787;SDS011;16074;42.708;23.312;2022-10-26T11:21:27;1.70;;;1.60;;
787;SDS011;16074;42.708;23.312;2022-10-26T11:24:00;5.13;;;1.90;;
787;SDS011;16074;42.708;23.312;2022-10-26T11:26:38;2.17;;;1.70;;
787;SDS011;16074;42.708;23.312;2022-10-26T11:29:16;1.50;;;1.50;;
787;SDS011;16074;42.708;23.312;2022-10-26T11:31:51;1.50;;;1.40;;
787;SDS011;16074;42.708;23.312;2022-10-26T11:34:25;1.60;;;1.50;;
787;SDS011;16074;42.708;23.312;2022-10-26T11:37:01;1.50;;;1.50;;
787;SDS011;16074;42.708;23.312;2022-10-26T11:39:36;1.47;;;1.10;;
787;SDS011;16074;42.708;23.312;2022-10-26T11:42:15;1.63;;;1.53;;
787;SDS011;16074;42.708;23.312;2022-10-26T11:44:51;2.93;;;1.73;;
787;SDS011;16074;42.708;23.312;2022-10-26T11:47:23;1.60;;;1.40;;
787;SDS011;16074;42.708;23.312;2022-10-26T11:50:02;0.87;;;0.83;;
787;SDS011;16074;42.708;23.312;2022-10-26T11:52:45;1.20;;;1.20;;
787;SDS011;16074;42.708;23.312;2022-10-26T11:55:18;1.60;;;1.50;;
787;SDS011;16074;42.708;23.312;2022-10-26T11:57:49;1.90;;;1.50;;
787;SDS011;16074;42.708;23.312;2022-10-26T12:00:20;1.60;;;0.90;;
787;SDS011;16074;42.708;23.312;2022-10-26T12:02:50;1.20;;;1.20;;
787;SDS011;16074;42.708;23.312;2022-10-26T12:05:26;1.83;;;1.50;;
787;SDS011;16074;42.708;23.312;2022-10-26T12:08:01;1.23;;;1.00;;
787;SDS011;16074;42.708;23.312;2022-10-26T12:10:33;0.90;;;0.90;;
787;SDS011;16074;42.708;23.312;2022-10-26T12:13:07;3.07;;;1.20;;
787;SDS011;16074;42.708;23.312;2022-10-26T12:15:45;1.33;;;1.33;;
787;SDS011;16074;42.708;23.312;2022-10-26T12:18:31;1.67;;;1.57;;
787;SDS011;16074;42.708;23.312;2022-10-26T12:21:23;1.10;;;1.00;;
787;SDS011;16074;42.708;23.312;2022-10-26T12:23:56;1.10;;;1.10;;
787;SDS011;16074;42.708;23.312;2022-10-26T12:41:25;1.73;;;1.50;;
787;SDS011;16074;42.708;23.312;2022-10-26T12:43:55;0.90;;;0.90;;
787;SDS011;16074;42.708;23.312;2022-10-26T12:52:28;2.90;;;1.70;;
787;SDS011;16074;42.708;23.312;2022-10-26T12:58:05;2.93;;;2.10;;
787;SDS011;16074;42.708;23.312;2022-10-26T13:00:47;2.70;;;1.93;;
787;SDS011;16074;42.708;23.312;2022-10-26T13:03:37;5.30;;;4.90;;
787;SDS011;16074;42.708;23.312;2022-10-26T13:06:16;6.83;;;6.00;;
787;SDS011;16074;42.708;23.312;2022-10-26T13:09:06;7.10;;;6.53;;
787;SDS011;16074;42.708;23.312;2022-10-26T13:11:42;6.63;;;5.90;;
787;SDS011;16074;42.708;23.312;2022-10-26T13:14:22;4.17;;;3.87;;
787;SDS011;16074;42.708;23.312;2022-10-26T13:16:52;4.37;;;4.07;;
787;SDS011;16074;42.708;23.312;2022-10-26T13:19:21;4.57;;;4.27;;
787;SDS011;16074;42.708;23.312;2022-10-26T13:21:51;3.30;;;3.10;;
787;SDS011;16074;42.708;23.312;2022-10-26T13:24:20;2.40;;;2.30;;
787;SDS011;16074;42.708;23.312;2022-10-26T13:33:02;1.67;;;1.30;;
787;SDS011;16074;42.708;23.312;2022-10-26T13:35:38;4.13;;;1.57;;
787;SDS011;16074;42.708;23.312;2022-10-26T13:38:10;1.30;;;1.30;;
787;SDS011;16074;42.708;23.312;2022-10-26T13:40:39;3.77;;;3.47;;
787;SDS011;16074;42.708;23.312;2022-10-26T13:43:10;2.70;;;2.50;;
787;SDS011;16074;42.708;23.312;2022-10-26T13:45:47;2.40;;;2.17;;
787;SDS011;16074;42.708;23.312;2022-10-26T13:48:23;5.30;;;3.70;;
787;SDS011;16074;42.708;23.312;2022-10-26T13:50:58;5.10;;;3.93;;
787;SDS011;16074;42.708;23.312;2022-10-26T13:53:31;1.33;;;1.33;;
787;SDS011;16074;42.708;23.312;2022-10-26T13:56:08;1.40;;;1.30;;
787;SDS011;16074;42.708;23.312;2022-10-26T13:58:47;3.40;;;1.43;;
787;SDS011;16074;42.708;23.312;2022-10-26T14:01:20;2.83;;;1.40;;
787;SDS011;16074;42.708;23.312;2022-10-26T14:03:51;3.10;;;1.20;;
787;SDS011;16074;42.708;23.312;2022-10-26T14:06:21;2.33;;;0.90;;
787;SDS011;16074;42.708;23.312;2022-10-26T14:08:54;1.80;;;1.17;;
787;SDS011;16074;42.708;23.312;2022-10-26T14:11:28;2.00;;;1.20;;
787;SDS011;16074;42.708;23.312;2022-10-26T14:14:00;1.40;;;1.23;;
787;SDS011;16074;42.708;23.312;2022-10-26T14:16:31;1.60;;;1.40;;
787;SDS011;16074;42.708;23.312;2022-10-26T14:19:00;1.60;;;1.50;;
787;SDS011;16074;42.708;23.312;2022-10-26T14:21:28;2.17;;;1.47;;
787;SDS011;16074;42.708;23.312;2022-10-26T14:23:57;2.23;;;2.00;;
787;SDS011;16074;42.708;23.312;2022-10-26T14:26:36;2.83;;;2.20;;
787;SDS011;16074;42.708;23.312;2022-10-26T14:29:13;2.20;;;2.00;;
787;SDS011;16074;42.708;23.312;2022-10-26T14:31:47;4.13;;;2.23;;
787;SDS011;16074;42.708;23.312;2022-10-26T14:34:16;1.80;;;1.70;;
787;SDS011;16074;42.708;23.312;2022-10-26T14:36:52;2.30;;;2.10;;
787;SDS011;16074;42.708;23.312;2022-10-26T14:39:24;2.17;;;2.07;;
787;SDS011;16074;42.708;23.312;2022-10-26T14:41:58;1.90;;;1.70;;
787;SDS011;16074;42.708;23.312;2022-10-26T14:44:29;2.20;;;2.10;;
787;SDS011;16074;42.708;23.312;2022-10-26T14:46:59;3.03;;;1.40;;
787;SDS011;16074;42.708;23.312;2022-10-26T14:49:27;2.40;;;2.20;;
787;SDS011;16074;42.708;23.312;2022-10-26T14:51:56;6.67;;;2.20;;
787;SDS011;16074;42.708;23.312;2022-10-26T14:54:26;2.00;;;1.90;;
787;SDS011;16074;42.708;23.312;2022-10-26T14:56:55;1.80;;;1.70;;
787;SDS011;16074;42.708;23.312;2022-10-26T14:59:24;4.43;;;2.20;;
787;SDS011;16074;42.708;23.312;2022-10-26T15:01:55;2.50;;;1.43;;
787;SDS011;16074;42.708;23.312;2022-10-26T15:04:31;1.60;;;1.50;;
787;SDS011;16074;42.708;23.312;2022-10-26T15:07:14;2.00;;;1.50;;
787;SDS011;16074;42.708;23.312;2022-10-26T15:09:44;1.80;;;1.70;;
787;SDS011;16074;42.708;23.312;2022-10-26T15:12:21;2.23;;;2.13;;
787;SDS011;16074;42.708;23.312;2022-10-26T15:14:54;2.00;;;1.80;;
787;SDS011;16074;42.708;23.312;2022-10-26T15:17:33;2.00;;;1.83;;
787;SDS011;16074;42.708;23.312;2022-10-26T15:20:06;4.23;;;2.60;;
787;SDS011;16074;42.708;23.312;2022-10-26T15:22:44;8.13;;;4.93;;
787;SDS011;16074;42.708;23.312;2022-10-26T15:25:17;7.57;;;6.00;;
787;SDS011;16074;42.708;23.312;2022-10-26T15:27:48;7.70;;;4.60;;
787;SDS011;16074;42.708;23.312;2022-10-26T15:30:19;5.10;;;4.30;;
787;SDS011;16074;42.708;23.312;2022-10-26T15:32:49;7.40;;;5.23;;
787;SDS011;16074;42.708;23.312;2022-10-26T15:35:29;7.90;;;5.50;;
787;SDS011;16074;42.708;23.312;2022-10-26T15:37:58;4.67;;;4.27;;
787;SDS011;16074;42.708;23.312;2022-10-26T15:40:27;4.70;;;4.30;;
787;SDS011;16074;42.708;23.312;2022-10-26T15:42:58;6.07;;;3.90;;
787;SDS011;16074;42.708;23.312;2022-10-26T15:45:29;4.83;;;2.87;;
787;SDS011;16074;42.708;23.312;2022-10-26T15:47:59;3.63;;;3.33;;
787;SDS011;16074;42.708;23.312;2022-10-26T15:50:48;4.40;;;4.00;;
787;SDS011;16074;42.708;23.312;2022-10-26T15:53:17;5.33;;;3.80;;
787;SDS011;16074;42.708;23.312;2022-10-26T15:55:48;4.50;;;3.60;;
787;SDS011;16074;42.708;23.312;2022-10-26T15:58:18;3.10;;;2.80;;
787;SDS011;16074;42.708;23.312;2022-10-26T16:00:46;3.30;;;2.43;;
787;SDS011;16074;42.708;23.312;2022-10-26T16:03:15;5.20;;;4.50;;
787;SDS011;16074;42.708;23.312;2022-10-26T16:05:45;7.57;;;4.00;;
787;SDS011;16074;42.708;23.312;2022-10-26T16:08:15;12.37;;;6.67;;